Strona główna
METAR-TAF:

METAR-TAF

Lotnisko :

Berlin, New Hampshire, Stany Zjednoczone

Szerokość geograficzna: 44-34-34N, Długość geograficzna: 071-10-43W, wysokość: 353 m

Aktualna obserwacja pogody

Raport powstał 1 godzina i 5 minut temu, godzina 09:52 UTC
Wiatr 4 kt od zachodnio-północny zachód
Temperatura -1°C
Wilgotność 69%
Ciśnienie 1017 hPa
Widzialność: 16.1 km
Mało chmury na wysokości 4300 ft

METAR: KBML 220952Z AUTO 29004KT 10SM FEW043 M01/M06 A3002 RMK AO2 SLP181 T10111061

czas: 06:57 (10:57 UTC)


TAF: brakujący

Obserwacja i prognoza pogody dla ponad 4000 lotnisk (raport METAR i TAF).

Dostępne stacje oznaczono żółtymi i czerwonymi punktami na mapie.

Najedź kursorem aby zobaczyć nazwę stacji.

Kliknij aby zobaczyć obserwacje i prognozy pogody.

Aby zmienić mapę: kliknij na zielony przycisk z czarnym krzyżykiem, aby powiększyć; na zielony przycisk z myślnikiem, aby pomniejszyć; na zielone strzałki, aby przejść do map sąsiednich.


METAR-TAF: